Time;durP1;ratioP1;P1;durP2;ratioP2;P2;SDS_P1;SDS_P2;PMS_P1;PMS_P2;Temp;Humidity;BMP_temperature;BMP_pressure;BME280_temperature;BME280_humidity;BME280_pressure;Samples;Min_cycle;Max_cycle;Signal;HPM_P1;HPM_P2
2022/12/23 09:05:46;;;;;;;7.50;1.80;;;11.40;99.90;;;;;;3189764;23;20266;-70
2022/12/23 09:08:13;;;;;;;4.97;1.40;;;11.50;99.90;;;;;;4889574;29;20226;-71
2022/12/23 09:10:42;;;;;;;3.00;1.57;;;11.50;99.90;;;;;;4885259;29;20340;-70
2022/12/23 09:13:09;;;;;;;4.10;1.27;;;11.60;99.90;;;;;;4897567;29;20290;-71
2022/12/23 09:15:39;;;;;;;2.77;1.47;;;11.50;99.90;;;;;;4896503;29;20210;-71
2022/12/23 09:18:06;;;;;;;3.20;1.67;;;11.40;99.90;;;;;;4897580;29;20221;-72
2022/12/23 09:20:33;;;;;;;4.80;1.60;;;11.30;99.90;;;;;;4897339;29;20210;-72
2022/12/23 09:23:01;;;;;;;3.33;1.57;;;11.40;99.90;;;;;;4897014;29;20593;-72
2022/12/23 09:25:28;;;;;;;4.50;1.63;;;11.30;99.90;;;;;;4897216;29;20570;-72
2022/12/23 09:27:55;;;;;;;2.60;1.27;;;11.30;99.90;;;;;;4897342;29;20240;-72
2022/12/23 09:30:22;;;;;;;5.37;1.70;;;11.40;99.90;;;;;;4896861;29;20206;-72
2022/12/23 09:32:49;;;;;;;3.23;1.40;;;11.40;99.90;;;;;;4897973;29;20600;-72
2022/12/23 09:35:16;;;;;;;3.23;1.20;;;11.40;99.90;;;;;;4901553;29;20210;-72
2022/12/23 09:37:43;;;;;;;4.57;1.97;;;11.30;99.90;;;;;;4901210;29;20214;-72
2022/12/23 09:40:13;;;;;;;4.23;1.70;;;11.20;99.90;;;;;;4901163;29;20228;-72
2022/12/23 09:42:57;;;;;;;2.93;1.40;;;11.30;99.90;;;;;;4900831;29;20234;-72
2022/12/23 09:45:40;;;;;;;5.30;1.60;;;11.20;99.90;;;;;;4900863;29;20215;-73
2022/12/23 09:48:13;;;;;;;1.73;1.30;;;11.20;99.90;;;;;;4900967;29;20210;-72
2022/12/23 09:50:41;;;;;;;2.83;1.77;;;11.10;99.90;;;;;;4900584;29;20690;-73
2022/12/23 09:53:13;;;;;;;2.70;1.63;;;11.10;99.90;;;;;;4900552;29;20226;-72
2022/12/23 09:55:49;;;;;;;2.17;1.47;;;11.00;99.90;;;;;;4900874;29;20688;-72
2022/12/23 09:58:27;;;;;;;3.63;1.97;;;10.90;99.90;;;;;;4900847;29;20206;-73
2022/12/23 10:01:13;;;;;;;4.23;2.23;;;10.70;99.90;;;;;;4900913;29;20218;-72
2022/12/23 10:03:58;;;;;;;3.83;1.90;;;10.60;99.90;;;;;;4900713;29;20317;-72
2022/12/23 10:06:28;;;;;;;6.13;2.43;;;10.50;99.90;;;;;;4900648;29;20222;-73
2022/12/23 10:08:59;;;;;;;3.93;1.93;;;10.60;99.90;;;;;;4900464;29;20301;-73
2022/12/23 10:11:32;;;;;;;2.33;1.50;;;10.70;99.90;;;;;;4900355;29;20605;-73
2022/12/23 10:14:01;;;;;;;3.37;2.03;;;10.80;99.90;;;;;;4900260;29;20701;-73
2022/12/23 10:16:32;;;;;;;3.30;1.93;;;10.60;99.90;;;;;;4900731;29;20210;-73
2022/12/23 10:19:02;;;;;;;3.57;2.03;;;10.50;99.90;;;;;;4900464;29;20670;-73
2022/12/23 10:21:33;;;;;;;6.27;3.00;;;10.40;99.90;;;;;;4900211;29;20221;-73
2022/12/23 10:24:05;;;;;;;4.00;2.43;;;10.50;99.90;;;;;;4900314;29;20231;-72
2022/12/23 10:26:43;;;;;;;3.93;2.20;;;10.50;99.90;;;;;;4900327;29;20210;-73
2022/12/23 10:29:16;;;;;;;5.27;2.63;;;10.60;99.90;;;;;;4900437;29;20206;-73
2022/12/23 10:31:53;;;;;;;3.87;2.20;;;10.60;99.90;;;;;;4899948;29;20250;-72
2022/12/23 10:34:27;;;;;;;5.10;2.67;;;10.70;99.90;;;;;;4900102;29;20234;-73
2022/12/23 10:37:02;;;;;;;3.97;2.03;;;10.70;99.90;;;;;;4899910;29;20216;-73
2022/12/23 10:39:37;;;;;;;6.40;2.30;;;10.60;99.90;;;;;;4900256;29;20629;-73
2022/12/23 10:42:16;;;;;;;2.77;2.20;;;10.70;99.90;;;;;;4899984;29;20653;-73
2022/12/23 10:45:03;;;;;;;3.80;2.37;;;10.80;99.90;;;;;;4899295;29;20214;-72
2022/12/23 10:47:43;;;;;;;4.07;2.17;;;11.00;99.90;;;;;;4899901;29;20206;-73
2022/12/23 10:50:45;;;;;;;3.40;2.20;;;11.00;99.90;;;;;;4899523;29;20214;-72
2022/12/23 10:53:14;;;;;;;4.20;2.10;;;11.10;99.90;;;;;;4885225;29;20229;-72
2022/12/23 10:55:41;;;;;;;4.23;2.50;;;11.10;99.90;;;;;;4899973;29;20210;-72
2022/12/23 10:58:14;;;;;;;6.33;2.23;;;11.00;99.90;;;;;;4899960;29;20217;-73
2022/12/23 11:00:44;;;;;;;7.23;3.77;;;11.00;99.90;;;;;;4900044;29;20261;-73
2022/12/23 11:03:18;;;;;;;2.93;1.93;;;11.10;99.90;;;;;;4899488;29;20234;-72
2022/12/23 11:05:48;;;;;;;3.67;1.90;;;11.10;99.90;;;;;;4899408;29;20322;-72
2022/12/23 11:08:15;;;;;;;2.60;1.80;;;11.10;99.90;;;;;;4899166;29;20691;-73
2022/12/23 11:10:42;;;;;;;3.20;2.13;;;11.00;99.90;;;;;;4899473;29;20221;-72
2022/12/23 11:13:10;;;;;;;3.13;1.80;;;11.00;99.90;;;;;;4899536;29;20257;-72
2022/12/23 11:15:39;;;;;;;3.13;1.97;;;10.90;99.90;;;;;;4899508;29;20206;-73
2022/12/23 11:18:17;;;;;;;6.17;2.00;;;10.90;99.90;;;;;;4899354;29;20214;-73
2022/12/23 11:20:49;;;;;;;3.83;2.27;;;10.80;99.90;;;;;;4899152;29;20217;-72
2022/12/23 11:23:24;;;;;;;2.67;1.80;;;10.80;99.90;;;;;;4899217;29;20345;-73
2022/12/23 11:26:00;;;;;;;3.03;1.87;;;10.70;99.90;;;;;;4899137;29;20214;-73
2022/12/23 11:28:30;;;;;;;3.40;1.93;;;10.60;99.90;;;;;;4899085;29;20216;-73
2022/12/23 11:31:04;;;;;;;3.33;1.90;;;10.80;99.90;;;;;;4898977;29;20246;-72
2022/12/23 11:33:33;;;;;;;2.27;1.60;;;10.60;99.90;;;;;;4898737;29;20262;-73
2022/12/23 11:36:02;;;;;;;3.57;1.60;;;10.70;99.90;;;;;;4899013;29;20217;-73
2022/12/23 11:38:29;;;;;;;2.23;1.70;;;10.90;99.90;;;;;;4899034;29;20216;-73
2022/12/23 11:40:56;;;;;;;2.60;1.23;;;10.90;99.90;;;;;;4899232;29;20210;-73
2022/12/23 11:43:25;;;;;;;2.37;1.67;;;11.00;99.90;;;;;;4898842;29;20237;-72
2022/12/23 11:46:15;;;;;;;2.13;1.50;;;11.10;99.90;;;;;;4898665;29;20682;-73
2022/12/23 11:48:41;;;;;;;3.97;1.20;;;11.10;99.90;;;;;;4898745;29;20217;-72
2022/12/23 11:51:08;;;;;;;1.23;1.07;;;11.20;99.90;;;;;;4898525;29;20573;-73
2022/12/23 11:53:35;;;;;;;1.10;0.70;;;11.20;99.90;;;;;;4898314;29;20725;-73
2022/12/23 11:56:07;;;;;;;2.30;1.00;;;11.30;99.90;;;;;;4898176;29;20229;-72
2022/12/23 11:58:40;;;;;;;2.00;1.10;;;11.30;99.90;;;;;;4898324;29;20214;-73
2022/12/23 12:01:14;;;;;;;1.17;0.80;;;11.30;99.90;;;;;;4898514;29;20214;-73
2022/12/23 12:03:48;;;;;;;2.00;0.97;;;11.40;99.90;;;;;;4898507;29;20238;-73
2022/12/23 12:06:18;;;;;;;1.40;0.80;;;11.50;99.90;;;;;;4898679;29;20218;-73
2022/12/23 12:08:49;;;;;;;3.13;0.80;;;11.50;99.90;;;;;;4898239;29;20266;-72
2022/12/23 12:11:18;;;;;;;2.10;0.93;;;11.60;99.90;;;;;;4898391;29;20238;-73
2022/12/23 12:13:49;;;;;;;1.73;0.57;;;11.60;99.90;;;;;;4898494;29;20226;-72
2022/12/23 12:16:40;;;;;;;1.10;0.80;;;11.80;99.90;;;;;;4893221;29;20223;-72
2022/12/23 12:19:15;;;;;;;1.00;0.60;;;11.90;99.90;;;;;;4896402;29;20206;-72
2022/12/23 12:21:43;;;;;;;1.27;0.60;;;12.00;99.90;;;;;;4896651;29;20296;-72
2022/12/23 12:24:17;;;;;;;1.10;0.80;;;12.10;99.90;;;;;;4896447;29;20237;-73
2022/12/23 12:26:45;;;;;;;0.50;0.50;;;12.30;99.90;;;;;;4896849;29;20210;-74
2022/12/23 12:29:19;;;;;;;0.70;0.50;;;12.40;99.90;;;;;;4896189;29;20266;-73
2022/12/23 12:31:48;;;;;;;1.10;0.70;;;12.50;99.90;;;;;;4894992;29;20248;-72
2022/12/23 12:34:30;;;;;;;2.63;0.70;;;12.60;99.90;;;;;;4895936;29;20706;-72
2022/12/23 12:37:06;;;;;;;2.10;0.57;;;12.70;99.90;;;;;;4896606;29;20210;-71
2022/12/23 12:39:40;;;;;;;0.70;0.50;;;12.70;99.90;;;;;;4896166;29;20304;-72
2022/12/23 12:42:14;;;;;;;0.57;0.47;;;12.80;99.90;;;;;;4895752;29;20331;-70
2022/12/23 12:44:49;;;;;;;1.10;0.60;;;12.90;99.90;;;;;;4896340;29;20217;-72
2022/12/23 12:47:24;;;;;;;2.00;0.87;;;13.00;99.90;;;;;;4895942;29;20214;-72
2022/12/23 12:49:58;;;;;;;0.70;0.53;;;13.00;99.90;;;;;;4896705;29;20214;-71
2022/12/23 12:52:27;;;;;;;3.20;0.60;;;13.10;99.90;;;;;;4895858;29;20246;-72
2022/12/23 12:54:58;;;;;;;1.33;0.80;;;13.20;99.90;;;;;;4892431;29;20214;-69
2022/12/23 12:57:26;;;;;;;0.80;0.60;;;13.30;99.90;;;;;;4896321;29;20546;-71
2022/12/23 12:59:56;;;;;;;0.50;0.50;;;13.30;99.90;;;;;;4895536;29;20210;-71
2022/12/23 13:02:40;;;;;;;1.17;0.47;;;13.40;99.90;;;;;;4896465;29;20246;-74
2022/12/23 13:05:32;;;;;;;0.70;0.50;;;13.50;99.90;;;;;;4895614;29;20234;-71
2022/12/23 13:08:18;;;;;;;1.10;0.50;;;13.40;99.90;;;;;;4896516;29;20222;-74
2022/12/23 13:10:49;;;;;;;0.70;0.40;;;13.40;99.90;;;;;;4900292;29;20214;-73
2022/12/23 13:13:30;;;;;;;2.80;0.40;;;13.40;99.90;;;;;;4898923;29;20253;-72
2022/12/23 13:16:02;;;;;;;1.70;0.80;;;13.40;99.90;;;;;;4899183;29;20665;-72
2022/12/23 13:18:40;;;;;;;3.60;0.70;;;13.40;99.90;;;;;;4899502;29;20206;-72
2022/12/23 13:21:16;;;;;;;0.93;0.60;;;13.40;99.90;;;;;;4899552;29;20210;-72
2022/12/23 13:23:51;;;;;;;1.33;0.47;;;13.40;99.90;;;;;;4898417;29;20483;-75
2022/12/23 13:26:26;;;;;;;0.70;0.60;;;13.40;99.90;;;;;;4899244;29;20309;-77
2022/12/23 13:29:04;;;;;;;0.63;0.60;;;13.30;99.90;;;;;;4899287;29;20213;-72
2022/12/23 13:31:42;;;;;;;0.60;0.50;;;13.30;99.90;;;;;;4898443;29;20214;-78
2022/12/23 13:34:20;;;;;;;1.20;0.53;;;13.30;99.90;;;;;;4899273;29;20234;-74
2022/12/23 13:36:56;;;;;;;0.37;0.30;;;13.40;99.90;;;;;;4899242;29;20206;-79
2022/12/23 13:39:37;;;;;;;1.20;0.50;;;13.40;99.90;;;;;;4899720;29;20206;-74
2022/12/23 13:42:05;;;;;;;1.27;0.40;;;13.50;99.90;;;;;;4880550;29;20215;-72
2022/12/23 13:44:34;;;;;;;2.53;0.60;;;13.50;99.90;;;;;;4891269;29;20218;-76
2022/12/23 13:47:12;;;;;;;0.40;0.40;;;13.60;99.90;;;;;;4899610;29;20221;-72
2022/12/23 13:49:52;;;;;;;0.53;0.40;;;13.50;99.90;;;;;;4899705;29;20217;-73
2022/12/23 13:52:31;;;;;;;0.87;0.57;;;13.50;99.90;;;;;;4898306;29;20242;-70
2022/12/23 13:55:12;;;;;;;0.70;0.40;;;13.50;99.90;;;;;;4898931;29;20206;-72
2022/12/23 13:57:51;;;;;;;0.53;0.40;;;13.40;99.90;;;;;;4899117;29;20573;-72
2022/12/23 14:00:25;;;;;;;1.17;0.73;;;13.40;99.90;;;;;;4898774;29;20221;-73
2022/12/23 14:03:04;;;;;;;0.90;0.40;;;13.40;99.90;;;;;;4899148;29;20230;-74
2022/12/23 14:05:36;;;;;;;1.23;0.57;;;13.40;99.90;;;;;;4898612;29;20233;-72
2022/12/23 14:08:07;;;;;;;3.73;0.90;;;13.40;99.90;;;;;;4898418;29;20207;-71
2022/12/23 14:10:35;;;;;;;0.80;0.50;;;13.40;99.90;;;;;;4899012;29;20305;-78
2022/12/23 14:13:06;;;;;;;1.23;0.60;;;13.40;99.90;;;;;;4899521;29;20266;-72
2022/12/23 14:16:11;;;;;;;0.63;0.40;;;13.30;99.90;;;;;;4898209;29;20210;-74
2022/12/23 14:18:55;;;;;;;1.73;0.57;;;13.20;99.90;;;;;;4898927;29;20215;-74
2022/12/23 14:21:35;;;;;;;1.70;0.60;;;13.20;99.90;;;;;;4897830;29;20217;-75
2022/12/23 14:24:29;;;;;;;0.83;0.60;;;13.10;99.90;;;;;;4898624;29;20309;-71
2022/12/23 14:27:16;;;;;;;0.80;0.70;;;13.20;99.90;;;;;;4898804;29;20213;-72
2022/12/23 14:29:54;;;;;;;2.63;0.43;;;13.10;99.90;;;;;;4898217;29;20721;-72
2022/12/23 14:32:26;;;;;;;1.33;0.50;;;13.10;99.90;;;;;;4898384;29;20350;-79
2022/12/23 14:35:19;;;;;;;2.60;0.67;;;13.10;99.90;;;;;;4898611;29;20211;-74
2022/12/23 14:38:08;;;;;;;0.83;0.30;;;13.10;99.90;;;;;;4898203;29;20210;-75
2022/12/23 14:40:52;;;;;;;1.33;0.43;;;13.10;99.90;;;;;;4899863;29;20210;-76
2022/12/23 14:43:25;;;;;;;2.53;0.50;;;13.00;99.90;;;;;;4899428;29;20240;-78
2022/12/23 14:45:52;;;;;;;2.73;0.40;;;13.00;99.90;;;;;;4899251;29;20214;-74
2022/12/23 14:48:56;;;;;;;3.83;0.50;;;13.00;99.90;;;;;;4899355;29;20221;-76
2022/12/23 14:51:31;;;;;;;3.80;0.70;;;13.00;99.90;;;;;;4899593;29;20526;-75
2022/12/23 14:54:15;;;;;;;1.87;0.77;;;12.90;99.90;;;;;;4899387;29;20249;-81
2022/12/23 14:56:59;;;;;;;1.57;0.47;;;12.90;99.90;;;;;;4899490;29;20218;-79
2022/12/23 14:59:36;;;;;;;2.53;0.57;;;12.90;99.90;;;;;;4899648;29;20236;-79
2022/12/23 15:04:45;;;;;;;5.60;0.80;;;12.80;99.90;;;;;;4897729;29;20226;-74
2022/12/23 15:07:20;;;;;;;5.00;0.50;;;12.80;99.90;;;;;;4898909;29;20211;-73
2022/12/23 15:09:50;;;;;;;5.03;0.50;;;12.80;99.90;;;;;;4899458;29;20220;-77
2022/12/23 15:12:26;;;;;;;3.13;0.50;;;12.80;99.90;;;;;;4899105;29;20242;-73
2022/12/23 15:14:56;;;;;;;7.03;0.70;;;12.80;99.90;;;;;;4898856;29;20217;-72
2022/12/23 15:17:26;;;;;;;3.20;0.50;;;12.90;99.90;;;;;;4899480;29;20236;-72
2022/12/23 15:20:02;;;;;;;3.87;0.57;;;12.80;99.90;;;;;;4899243;29;20297;-74
2022/12/23 15:22:31;;;;;;;2.00;0.47;;;12.80;99.90;;;;;;4899179;29;20233;-78
2022/12/23 15:24:57;;;;;;;4.23;0.63;;;12.80;99.90;;;;;;4899243;29;20692;-77
2022/12/23 15:27:27;;;;;;;5.07;0.80;;;12.80;99.90;;;;;;4898870;29;20670;-74
2022/12/23 15:29:54;;;;;;;6.47;0.90;;;12.80;99.90;;;;;;4898917;29;20220;-73
2022/12/23 15:32:23;;;;;;;2.27;0.70;;;12.70;99.90;;;;;;4898940;29;20238;-78
2022/12/23 15:34:51;;;;;;;3.77;1.17;;;12.70;99.90;;;;;;4899199;29;20213;-75
2022/12/23 15:37:25;;;;;;;5.37;0.83;;;12.70;99.90;;;;;;4899174;29;20621;-76
2022/12/23 15:39:52;;;;;;;4.60;1.23;;;12.70;99.90;;;;;;4891952;29;20255;-71
2022/12/23 15:42:23;;;;;;;4.70;0.90;;;12.60;99.90;;;;;;4878879;29;20238;-73
2022/12/23 15:44:51;;;;;;;3.73;1.00;;;12.70;99.90;;;;;;4892200;29;20211;-73
2022/12/23 15:47:24;;;;;;;8.50;1.20;;;12.60;99.90;;;;;;4897317;29;20243;-72
2022/12/23 15:49:51;;;;;;;9.30;1.30;;;12.60;99.90;;;;;;4897734;29;20217;-72
2022/12/23 15:52:18;;;;;;;13.53;1.70;;;12.60;99.90;;;;;;4898019;29;20754;-72
2022/12/23 15:55:00;;;;;;;6.43;1.10;;;12.50;99.90;;;;;;4895148;29;20221;-73
2022/12/23 15:57:29;;;;;;;10.20;1.80;;;12.50;99.90;;;;;;4896930;29;20800;-72
2022/12/23 15:59:58;;;;;;;14.67;1.40;;;12.60;99.90;;;;;;4897292;29;20216;-73
2022/12/23 16:02:30;;;;;;;10.20;1.10;;;12.50;99.90;;;;;;4896359;29;20233;-72
2022/12/23 16:05:00;;;;;;;6.17;1.30;;;12.50;99.90;;;;;;4893773;29;20206;-72
2022/12/23 16:07:33;;;;;;;9.00;1.10;;;12.60;99.90;;;;;;4894690;29;20610;-72
2022/12/23 16:10:02;;;;;;;5.20;1.30;;;12.50;99.90;;;;;;4894286;29;20254;-72
2022/12/23 16:12:32;;;;;;;5.07;1.53;;;12.40;99.90;;;;;;4895414;29;20227;-71
2022/12/23 16:15:01;;;;;;;6.90;1.10;;;12.30;99.90;;;;;;4893231;29;20202;-71
2022/12/23 16:17:32;;;;;;;14.30;2.60;;;12.30;99.90;;;;;;4892261;29;20209;-72
2022/12/23 16:20:21;;;;;;;12.37;1.80;;;12.20;99.90;;;;;;4894078;29;20221;-72
2022/12/23 16:22:50;;;;;;;9.97;1.33;;;12.20;99.90;;;;;;4885561;29;20230;-71
2022/12/23 16:25:21;;;;;;;6.73;1.30;;;12.20;99.90;;;;;;4892823;29;20210;-71
2022/12/23 16:27:50;;;;;;;11.87;1.97;;;12.20;99.90;;;;;;4894649;29;20230;-72
2022/12/23 16:30:20;;;;;;;7.80;1.17;;;12.10;99.90;;;;;;4891262;29;20215;-72
2022/12/23 16:32:53;;;;;;;10.00;1.53;;;12.10;99.90;;;;;;4891889;29;20241;-73
2022/12/23 16:35:31;;;;;;;8.87;1.30;;;12.00;99.90;;;;;;4894133;29;20213;-72
2022/12/23 16:38:08;;;;;;;6.90;1.33;;;12.00;99.90;;;;;;4893592;29;20220;-72
2022/12/23 16:40:35;;;;;;;12.53;1.60;;;12.10;99.90;;;;;;4894087;29;20205;-71
2022/12/23 16:43:02;;;;;;;6.77;0.93;;;12.10;99.90;;;;;;4895953;29;20233;-72
2022/12/23 16:45:32;;;;;;;13.00;1.30;;;12.20;99.90;;;;;;4891550;29;20272;-72
2022/12/23 16:48:00;;;;;;;6.70;1.07;;;12.30;99.90;;;;;;4888125;29;20206;-71
2022/12/23 16:50:27;;;;;;;7.37;1.30;;;12.30;99.90;;;;;;4893589;29;20214;-72
2022/12/23 16:52:54;;;;;;;5.63;1.40;;;12.30;99.90;;;;;;4893565;29;20242;-72
2022/12/23 16:55:21;;;;;;;8.13;1.13;;;12.40;99.90;;;;;;4895978;29;20213;-72
2022/12/23 16:57:49;;;;;;;14.03;1.63;;;12.40;99.90;;;;;;4896460;29;20241;-70
2022/12/23 17:00:18;;;;;;;7.40;1.87;;;12.40;99.90;;;;;;4896086;29;20211;-73
2022/12/23 17:02:47;;;;;;;17.27;1.93;;;12.40;99.90;;;;;;4895522;29;20230;-74
2022/12/23 17:05:16;;;;;;;7.93;1.30;;;12.50;99.90;;;;;;4896118;29;20210;-72
2022/12/23 17:07:43;;;;;;;7.87;1.70;;;12.30;99.90;;;;;;4896140;29;20570;-71
2022/12/23 17:10:13;;;;;;;5.83;1.37;;;12.30;99.90;;;;;;4895803;29;20305;-72
2022/12/23 17:12:40;;;;;;;9.80;1.53;;;12.30;99.90;;;;;;4896116;29;20257;-74
2022/12/23 17:15:08;;;;;;;7.03;1.37;;;12.30;99.90;;;;;;4896106;29;20209;-72
2022/12/23 17:17:35;;;;;;;9.27;1.60;;;12.30;99.90;;;;;;4895598;29;20221;-72
2022/12/23 17:20:04;;;;;;;5.20;0.87;;;12.30;99.90;;;;;;4895992;29;20214;-73
2022/12/23 17:22:33;;;;;;;10.30;1.27;;;12.40;99.90;;;;;;4895891;29;20230;-72
2022/12/23 17:25:00;;;;;;;13.03;1.57;;;12.40;99.90;;;;;;4895902;29;20217;-73
2022/12/23 17:27:27;;;;;;;9.77;1.37;;;12.40;99.90;;;;;;4895784;29;20665;-76
2022/12/23 17:29:54;;;;;;;12.20;2.00;;;12.40;99.90;;;;;;4896297;29;20210;-73
2022/12/23 17:32:21;;;;;;;6.33;1.27;;;12.40;99.90;;;;;;4895027;29;20282;-76
2022/12/23 17:34:48;;;;;;;8.97;1.83;;;12.40;99.90;;;;;;4895823;29;20249;-72
2022/12/23 17:37:18;;;;;;;9.13;1.33;;;12.40;99.90;;;;;;4896666;29;20217;-77
2022/12/23 17:39:45;;;;;;;8.47;1.63;;;12.40;99.90;;;;;;4896102;29;20210;-78
2022/12/23 17:42:16;;;;;;;7.87;1.83;;;12.50;99.90;;;;;;4895969;29;20218;-80
2022/12/23 17:44:43;;;;;;;14.37;1.77;;;12.50;99.90;;;;;;4896102;29;20317;-71
2022/12/23 17:47:14;;;;;;;11.17;1.70;;;12.40;99.90;;;;;;4895723;29;20198;-76
2022/12/23 17:49:41;;;;;;;8.73;1.33;;;12.40;99.90;;;;;;4896427;29;20285;-76
2022/12/23 17:52:13;;;;;;;12.97;2.27;;;12.40;99.90;;;;;;4895793;29;20215;-74
2022/12/23 17:54:41;;;;;;;12.33;1.67;;;12.40;99.90;;;;;;4897186;29;20263;-73
2022/12/23 17:57:19;;;;;;;7.97;2.20;;;12.30;99.90;;;;;;4899632;29;20221;-73
2022/12/23 17:59:47;;;;;;;12.30;1.63;;;12.30;99.90;;;;;;4899236;29;20210;-73
2022/12/23 18:02:22;;;;;;;13.50;1.20;;;12.30;99.90;;;;;;4898529;29;20265;-74
2022/12/23 18:04:49;;;;;;;14.80;1.50;;;12.30;99.90;;;;;;4899361;29;20226;-79
2022/12/23 18:07:17;;;;;;;12.43;1.73;;;12.40;99.90;;;;;;4899334;29;20210;-77
2022/12/23 18:09:45;;;;;;;11.20;1.50;;;12.30;99.90;;;;;;4900110;29;20245;-80
2022/12/23 18:12:22;;;;;;;11.97;1.80;;;12.30;99.90;;;;;;4899070;29;20228;-78
2022/12/23 18:14:49;;;;;;;12.73;2.10;;;12.30;99.90;;;;;;4899288;29;20241;-72
2022/12/23 18:17:16;;;;;;;7.63;1.43;;;12.30;99.90;;;;;;4900318;29;20210;-71
2022/12/23 18:19:43;;;;;;;12.90;1.90;;;12.20;99.90;;;;;;4900082;29;20210;-72
2022/12/23 18:22:16;;;;;;;13.27;1.40;;;12.20;99.90;;;;;;4899502;29;20210;-70
2022/12/23 18:24:42;;;;;;;11.13;1.63;;;12.20;99.90;;;;;;4900034;29;20207;-71
2022/12/23 18:27:14;;;;;;;13.03;2.00;;;12.20;99.90;;;;;;4900188;29;20207;-73
2022/12/23 18:29:41;;;;;;;11.50;1.37;;;12.20;99.90;;;;;;4900109;29;20251;-72
2022/12/23 18:32:12;;;;;;;8.03;1.77;;;12.20;99.90;;;;;;4899630;29;20206;-72
2022/12/23 18:34:39;;;;;;;12.10;1.40;;;12.20;99.90;;;;;;4900065;29;20242;-73
2022/12/23 18:37:08;;;;;;;10.57;1.43;;;12.20;99.90;;;;;;4900977;29;20211;-72
2022/12/23 18:39:35;;;;;;;13.13;2.20;;;12.20;99.90;;;;;;4911691;29;20202;-72
2022/12/23 18:42:02;;;;;;;16.93;2.10;;;12.20;99.90;;;;;;4900011;29;20210;-73
2022/12/23 18:44:30;;;;;;;10.57;1.80;;;12.20;99.90;;;;;;4899606;29;20543;-71
2022/12/23 18:46:57;;;;;;;11.87;1.70;;;12.30;99.90;;;;;;4899965;29;20304;-71
2022/12/23 18:49:23;;;;;;;4.73;1.10;;;12.30;99.90;;;;;;4899995;29;20210;-71
2022/12/23 18:51:50;;;;;;;7.80;1.27;;;12.20;99.90;;;;;;4899802;29;20210;-71
2022/12/23 18:54:17;;;;;;;13.33;2.10;;;12.20;99.90;;;;;;4899334;29;20242;-72
2022/12/23 18:56:45;;;;;;;6.77;1.50;;;12.20;99.90;;;;;;4899474;29;20670;-73
2022/12/23 18:59:17;;;;;;;9.90;2.40;;;12.20;99.90;;;;;;4899376;29;20666;-71
2022/12/23 19:01:45;;;;;;;5.70;1.40;;;12.30;99.90;;;;;;4898183;29;20211;-71
2022/12/23 19:04:12;;;;;;;7.83;1.10;;;12.20;99.90;;;;;;4898380;29;20234;-72
2022/12/23 19:06:40;;;;;;;8.47;1.10;;;12.20;99.90;;;;;;4897732;29;20297;-72
2022/12/23 19:09:07;;;;;;;6.83;0.90;;;12.10;99.90;;;;;;4889130;29;20686;-72
2022/12/23 19:11:34;;;;;;;7.50;1.40;;;12.10;99.90;;;;;;4891202;29;20737;-72
2022/12/23 19:14:01;;;;;;;13.03;1.30;;;12.20;99.90;;;;;;4896139;29;20234;-72
2022/12/23 19:16:28;;;;;;;13.17;1.70;;;12.10;99.90;;;;;;4893961;29;20993;-72
2022/12/23 19:18:56;;;;;;;12.57;1.53;;;12.10;99.90;;;;;;4897307;29;20215;-72
2022/12/23 19:21:23;;;;;;;9.10;2.10;;;12.10;99.90;;;;;;4895531;29;20207;-69
2022/12/23 19:23:50;;;;;;;7.83;1.23;;;12.10;99.90;;;;;;4897471;29;20234;-72
2022/12/23 19:26:17;;;;;;;9.30;1.53;;;12.10;99.90;;;;;;4894989;29;20211;-73
2022/12/23 19:28:43;;;;;;;9.63;1.53;;;12.10;99.90;;;;;;4897702;29;20211;-73
2022/12/23 19:31:11;;;;;;;8.83;1.20;;;12.10;99.90;;;;;;4894102;29;20693;-71
2022/12/23 19:33:39;;;;;;;12.83;2.00;;;12.00;99.90;;;;;;4892139;29;20724;-71
2022/12/23 19:36:11;;;;;;;10.50;1.60;;;12.10;99.90;;;;;;4890249;29;20218;-71
2022/12/23 19:38:39;;;;;;;11.27;1.60;;;12.00;99.90;;;;;;4887895;29;20692;-69
2022/12/23 19:41:06;;;;;;;10.53;1.50;;;12.00;99.90;;;;;;4897455;29;20203;-70
2022/12/23 19:43:33;;;;;;;9.40;1.50;;;12.00;99.90;;;;;;4893979;29;20255;-69
2022/12/23 19:46:01;;;;;;;5.17;1.37;;;12.00;99.90;;;;;;4889962;29;20214;-69
2022/12/23 19:48:29;;;;;;;14.13;1.67;;;11.90;99.90;;;;;;4891696;29;20225;-69
2022/12/23 19:50:58;;;;;;;11.53;1.53;;;12.00;99.90;;;;;;4898006;29;20207;-70
2022/12/23 19:53:26;;;;;;;15.03;1.27;;;12.00;99.90;;;;;;4893651;29;20241;-69
2022/12/23 19:55:58;;;;;;;13.60;1.90;;;12.00;99.90;;;;;;4897796;29;20678;-70
2022/12/23 19:58:25;;;;;;;11.33;1.63;;;12.00;99.90;;;;;;4890429;29;20214;-69
2022/12/23 20:00:52;;;;;;;13.60;1.33;;;12.00;99.90;;;;;;4890673;29;20206;-69
2022/12/23 20:03:19;;;;;;;7.63;1.43;;;12.00;99.90;;;;;;4890482;29;20243;-70
2022/12/23 20:05:50;;;;;;;5.97;1.60;;;12.10;99.90;;;;;;4889932;29;20213;-69
2022/12/23 20:08:16;;;;;;;9.87;1.10;;;12.10;99.90;;;;;;4881509;29;20233;-70
2022/12/23 20:10:44;;;;;;;8.47;1.43;;;12.10;99.90;;;;;;4890056;29;20204;-69
2022/12/23 20:13:11;;;;;;;10.97;1.30;;;12.10;99.90;;;;;;4887822;29;20534;-69
2022/12/23 20:15:38;;;;;;;6.57;1.10;;;12.00;99.90;;;;;;4894549;29;20613;-70
2022/12/23 20:18:05;;;;;;;6.47;1.10;;;12.10;99.90;;;;;;4885412;29;20206;-70
2022/12/23 20:20:32;;;;;;;15.37;2.20;;;12.10;99.90;;;;;;4891357;29;20211;-69
2022/12/23 20:22:59;;;;;;;11.27;1.63;;;12.10;99.90;;;;;;4894494;29;20316;-69
2022/12/23 20:25:26;;;;;;;9.27;1.37;;;12.10;99.90;;;;;;4891286;29;20670;-70
2022/12/23 20:27:54;;;;;;;5.87;1.60;;;12.00;99.90;;;;;;4891803;29;20214;-69
2022/12/23 20:30:20;;;;;;;5.60;1.40;;;12.00;99.90;;;;;;4891330;29;20221;-69
2022/12/23 20:32:47;;;;;;;11.57;1.40;;;11.90;99.90;;;;;;4896805;29;20234;-69
2022/12/23 20:35:14;;;;;;;15.10;1.67;;;12.00;99.90;;;;;;4890623;29;20238;-70
2022/12/23 20:37:41;;;;;;;12.37;1.63;;;12.00;99.90;;;;;;4892282;29;20206;-70
2022/12/23 20:40:11;;;;;;;12.10;1.40;;;11.90;99.90;;;;;;4887960;29;20219;-69
2022/12/23 20:42:38;;;;;;;10.50;1.37;;;11.90;99.90;;;;;;4884242;29;20313;-69
2022/12/23 20:45:07;;;;;;;13.17;2.23;;;11.70;99.90;;;;;;4887878;29;20218;-69
2022/12/23 20:47:34;;;;;;;8.03;1.47;;;11.60;99.90;;;;;;4887291;29;20214;-70
2022/12/23 20:50:00;;;;;;;6.40;1.30;;;11.60;99.90;;;;;;4886786;29;20217;-69
2022/12/23 20:52:27;;;;;;;16.83;1.90;;;11.50;99.90;;;;;;4892764;29;20732;-69
2022/12/23 20:54:55;;;;;;;6.27;1.53;;;11.40;99.90;;;;;;4890853;29;20363;-69
2022/12/23 20:57:22;;;;;;;9.90;1.67;;;11.40;99.90;;;;;;4891001;29;20208;-69
2022/12/23 20:59:49;;;;;;;5.47;0.97;;;11.30;99.90;;;;;;4887754;29;20689;-69
2022/12/23 21:02:17;;;;;;;10.63;1.33;;;11.30;99.90;;;;;;4892994;29;20210;-69
2022/12/23 21:04:44;;;;;;;9.93;1.10;;;11.30;99.90;;;;;;4894114;29;20220;-69
2022/12/23 21:07:11;;;;;;;14.70;1.50;;;11.30;99.90;;;;;;4893641;29;20214;-69
2022/12/23 21:09:38;;;;;;;12.00;1.20;;;11.40;99.90;;;;;;4895348;29;20206;-69
2022/12/23 21:12:05;;;;;;;7.47;1.00;;;11.40;99.90;;;;;;4890547;29;20208;-69
2022/12/23 21:14:32;;;;;;;10.93;1.80;;;11.30;99.90;;;;;;4890219;29;20606;-69
2022/12/23 21:16:58;;;;;;;11.80;2.07;;;11.30;99.90;;;;;;4884202;29;20677;-69
2022/12/23 21:19:27;;;;;;;9.83;1.80;;;11.40;99.90;;;;;;4896230;29;20582;-69
2022/12/23 21:21:53;;;;;;;14.47;1.13;;;11.30;99.90;;;;;;4889444;29;20565;-70
2022/12/23 21:24:21;;;;;;;9.07;1.83;;;11.30;99.90;;;;;;4893536;29;20328;-69
2022/12/23 21:26:52;;;;;;;12.90;1.93;;;11.30;99.90;;;;;;4893302;29;20206;-70
2022/12/23 21:29:19;;;;;;;9.53;1.10;;;11.40;99.90;;;;;;4896293;29;20626;-70
